Time;durP1;ratioP1;P1;durP2;ratioP2;P2;SDS_P1;SDS_P2;PMS_P1;PMS_P2;Temp;Humidity;BMP_temperature;BMP_pressure;BME280_temperature;BME280_humidity;BME280_pressure;Samples;Min_cycle;Max_cycle;Signal;HPM_P1;HPM_P2
2022/10/20 00:00:35;;;;;;;13.17;8.70;;;;;;;14.08;100.00;149578.19;5113621;28;20188;-56
2022/10/20 00:03:02;;;;;;;13.90;8.63;;;;;;;14.13;100.00;149589.59;5113624;28;20180;-56
2022/10/20 00:05:29;;;;;;;10.17;9.13;;;;;;;14.16;100.00;149598.44;5113508;28;20191;-55
2022/10/20 00:07:56;;;;;;;12.73;8.33;;;;;;;13.63;100.00;149465.34;5113782;28;20183;-57
2022/10/20 00:10:24;;;;;;;11.83;8.60;;;;;;;13.86;100.00;149522.41;5113859;28;20179;-56
2022/10/20 00:12:51;;;;;;;11.73;8.60;;;;;;;13.41;100.00;149408.38;5112044;28;20242;-55
2022/10/20 00:15:18;;;;;;;10.13;9.23;;;;;;;13.66;100.00;149472.94;5112900;28;20179;-56
2022/10/20 00:17:45;;;;;;;13.17;9.17;;;;;;;13.80;100.00;149505.88;5113551;28;20191;-56
2022/10/20 00:20:12;;;;;;;12.43;8.63;;;;;;;13.86;100.00;149522.41;5113555;28;20188;-57
2022/10/20 00:22:39;;;;;;;8.90;8.17;;;;;;;13.76;100.00;149495.75;5113614;28;20187;-55
2022/10/20 00:25:06;;;;;;;16.10;9.43;;;;;;;13.82;100.00;149512.25;5113514;28;20228;-56
2022/10/20 00:27:35;;;;;;;17.33;9.17;;;;;;;13.78;100.00;149500.84;5113615;28;20202;-55
2022/10/20 00:30:02;;;;;;;9.40;8.67;;;;;;;13.96;100.00;149547.72;5113237;28;20242;-57
2022/10/20 00:32:29;;;;;;;9.93;8.40;;;;;;;14.01;100.00;149560.41;5113426;28;20211;-56
2022/10/20 00:34:56;;;;;;;13.37;9.67;;;;;;;14.08;100.00;149578.19;5113300;28;20188;-55
2022/10/20 00:37:23;;;;;;;13.80;9.00;;;;;;;14.11;100.00;149584.50;5113353;28;20184;-56
2022/10/20 00:39:50;;;;;;;9.63;8.77;;;;;;;14.23;100.00;149613.63;5113289;28;20183;-56
2022/10/20 00:42:18;;;;;;;26.40;9.30;;;;;;;14.06;100.00;149571.81;5112904;28;20183;-56
2022/10/20 00:44:56;;;;;;;15.43;9.03;;;;;;;14.24;100.00;149617.44;5113322;28;20660;-56
2022/10/20 00:47:35;;;;;;;9.53;8.40;;;;;;;14.31;100.00;149635.19;5113035;28;20549;-56
2022/10/20 00:50:08;;;;;;;9.43;7.77;;;;;;;14.17;100.00;149599.72;5112905;28;20183;-55
2022/10/20 00:52:37;;;;;;;10.03;9.33;;;;;;;14.09;100.00;149580.69;5112621;28;20207;-55
2022/10/20 00:55:05;;;;;;;10.50;9.27;;;;;;;14.16;100.00;149597.19;5112943;28;20187;-56
2022/10/20 00:57:32;;;;;;;14.37;9.90;;;;;;;14.19;100.00;149606.03;5112633;28;20194;-55
2022/10/20 01:00:00;;;;;;;16.93;11.60;;;;;;;14.21;100.00;149609.88;5112879;28;20183;-55
2022/10/20 01:02:28;;;;;;;20.60;12.67;;;;;;;14.24;100.00;149616.19;5112536;28;20190;-56
2022/10/20 01:04:54;;;;;;;28.57;14.87;;;;;;;14.20;100.00;149607.31;5112608;28;20202;-55
2022/10/20 01:07:21;;;;;;;21.43;14.33;;;;;;;14.10;100.00;149583.22;5112722;28;20211;-55
2022/10/20 01:09:49;;;;;;;17.20;15.40;;;;;;;14.10;100.00;149583.22;5112434;28;20226;-56
2022/10/20 01:12:26;;;;;;;31.13;14.13;;;;;;;14.15;100.00;149595.91;5112210;28;20605;-56
2022/10/20 01:15:02;;;;;;;24.97;13.83;;;;;;;14.06;100.00;149573.09;5112536;28;20179;-56
2022/10/20 01:17:45;;;;;;;21.47;14.23;;;;;;;14.09;100.00;149580.69;5112264;28;20187;-55
2022/10/20 01:20:32;;;;;;;25.63;13.60;;;;;;;14.08;100.00;149578.19;5112517;28;20206;-55
2022/10/20 01:23:24;;;;;;;16.63;13.43;;;;;;;13.98;100.00;149552.81;5112525;28;20180;-55
2022/10/20 01:26:06;;;;;;;14.83;13.30;;;;;;;14.11;100.00;149584.50;5099108;28;20677;-56
2022/10/20 01:28:40;;;;;;;21.27;14.53;;;;;;;14.04;100.00;149568.03;5112471;28;20558;-55
2022/10/20 01:31:14;;;;;;;17.80;14.50;;;;;;;14.03;100.00;149564.22;5071518;28;20188;-55
2022/10/20 01:33:47;;;;;;;19.43;14.57;;;;;;;13.93;100.00;149540.13;5071538;28;20230;-56
2022/10/20 01:36:21;;;;;;;16.30;13.77;;;;;;;14.00;100.00;149557.84;5071876;28;20188;-56
2022/10/20 01:38:54;;;;;;;13.83;12.67;;;;;;;14.05;100.00;149569.25;5071887;28;20188;-55
2022/10/20 01:41:31;;;;;;;32.00;13.50;;;;;;;13.99;100.00;149555.34;5071562;28;20276;-55
2022/10/20 01:44:01;;;;;;;16.00;13.03;;;;;;;13.69;100.00;149480.59;5071855;28;20231;-56
2022/10/20 01:46:29;;;;;;;16.30;13.33;;;;;;;13.84;100.00;149517.31;5071742;28;20211;-55
2022/10/20 01:48:57;;;;;;;28.80;13.60;;;;;;;13.53;100.00;149438.78;5071593;28;20284;-55
2022/10/20 01:51:24;;;;;;;13.97;12.53;;;;;;;13.35;100.00;149393.16;5071421;28;20181;-55
2022/10/20 01:53:51;;;;;;;25.93;13.23;;;;;;;13.35;100.00;149393.16;5071345;28;20209;-57
2022/10/20 01:56:25;;;;;;;20.33;13.50;;;;;;;13.16;100.00;149346.25;5071387;28;20185;-56
2022/10/20 01:59:14;;;;;;;25.77;12.67;;;;;;;12.95;100.00;149293.03;5071317;28;20188;-55
2022/10/20 02:02:00;;;;;;;14.57;12.70;;;;;;;12.96;100.00;149296.84;5071584;28;20632;-54
2022/10/20 02:04:43;;;;;;;20.77;15.10;;;;;;;12.93;100.00;149289.25;5071264;28;20199;-57
2022/10/20 02:07:18;;;;;;;20.80;15.03;;;;;;;12.83;100.00;149263.91;5071238;28;20185;-56
2022/10/20 02:09:48;;;;;;;22.93;15.80;;;;;;;12.80;100.00;149256.31;5071195;28;20199;-56
2022/10/20 02:12:19;;;;;;;22.00;15.43;;;;;;;12.57;100.00;149198.06;5071238;28;20192;-56
2022/10/20 02:14:51;;;;;;;21.10;15.47;;;;;;;12.64;100.00;149215.81;5071182;28;20209;-57
2022/10/20 02:17:21;;;;;;;25.93;15.00;;;;;;;12.38;100.00;149149.97;5071508;28;20181;-57
2022/10/20 02:19:52;;;;;;;24.30;14.67;;;;;;;12.50;100.00;149180.34;5071199;28;20239;-56
2022/10/20 02:22:20;;;;;;;19.47;14.20;;;;;;;12.43;100.00;149162.63;5071441;28;20603;-56
2022/10/20 02:24:48;;;;;;;16.77;15.07;;;;;;;12.48;100.00;149175.25;5071328;28;20197;-57
2022/10/20 02:27:17;;;;;;;18.17;14.60;;;;;;;12.35;100.00;149144.88;5071154;28;20189;-56
2022/10/20 02:29:48;;;;;;;22.70;14.73;;;;;;;12.20;100.00;149106.94;5089434;28;20223;-56
2022/10/20 02:32:18;;;;;;;24.03;14.83;;;;;;;12.21;100.00;149109.47;5111977;28;20184;-55
2022/10/20 02:34:45;;;;;;;27.53;14.83;;;;;;;12.30;100.00;149132.25;5111784;28;20581;-56
2022/10/20 02:37:12;;;;;;;16.90;12.93;;;;;;;11.93;100.00;149037.31;5112770;28;20582;-55
2022/10/20 02:39:39;;;;;;;18.30;13.23;;;;;;;12.00;100.00;149056.31;5115169;28;20187;-56
2022/10/20 02:42:06;;;;;;;17.20;12.13;;;;;;;11.99;100.00;149053.78;5115123;28;20213;-56
2022/10/20 02:44:33;;;;;;;19.23;13.87;;;;;;;12.17;100.00;149098.09;5115126;28;20198;-56
2022/10/20 02:47:00;;;;;;;15.33;11.93;;;;;;;12.34;100.00;149142.41;5115041;28;20190;-56
2022/10/20 02:49:29;;;;;;;19.40;11.93;;;;;;;12.43;100.00;149163.91;5115368;28;20726;-56
2022/10/20 02:51:56;;;;;;;26.53;16.97;;;;;;;12.40;100.00;149156.28;5115102;28;20187;-56
2022/10/20 02:54:23;;;;;;;30.27;16.87;;;;;;;12.38;100.00;149151.25;5115174;28;20207;-56
2022/10/20 02:56:50;;;;;;;27.83;16.30;;;;;;;12.40;100.00;149155.00;5115090;28;20182;-56
2022/10/20 02:59:17;;;;;;;23.73;14.83;;;;;;;12.39;100.00;149153.75;5114856;28;20184;-57
2022/10/20 03:01:44;;;;;;;20.47;15.13;;;;;;;12.30;100.00;149131.00;5114886;28;20180;-56
2022/10/20 03:04:12;;;;;;;18.43;15.20;;;;;;;12.29;100.00;149128.44;5114967;28;20194;-57
2022/10/20 03:06:43;;;;;;;27.00;14.97;;;;;;;12.31;100.00;149133.50;5115021;28;20554;-56
2022/10/20 03:09:10;;;;;;;21.70;15.73;;;;;;;12.27;100.00;149124.63;5114789;28;20264;-56
2022/10/20 03:11:37;;;;;;;21.77;14.87;;;;;;;12.14;100.00;149091.72;5114980;28;20203;-56
2022/10/20 03:14:04;;;;;;;21.97;15.50;;;;;;;12.31;100.00;149134.75;5114394;28;20207;-56
2022/10/20 03:16:31;;;;;;;23.13;13.23;;;;;;;12.34;100.00;149142.41;5114445;28;20183;-55
2022/10/20 03:18:58;;;;;;;29.83;14.83;;;;;;;12.31;100.00;149133.50;5114408;28;20187;-56
2022/10/20 03:21:24;;;;;;;16.90;13.70;;;;;;;12.29;100.00;149129.72;5114340;28;20187;-56
2022/10/20 03:23:53;;;;;;;22.47;14.90;;;;;;;12.51;100.00;149182.88;5114466;28;20198;-55
2022/10/20 03:26:20;;;;;;;25.57;14.43;;;;;;;12.59;100.00;149204.41;5114668;28;20187;-56
2022/10/20 03:28:46;;;;;;;22.03;14.23;;;;;;;12.54;100.00;149191.75;5114399;28;20194;-56
2022/10/20 03:31:13;;;;;;;18.10;13.97;;;;;;;12.55;100.00;149194.28;5114568;28;20187;-56
2022/10/20 03:33:40;;;;;;;22.53;12.47;;;;;;;12.60;100.00;149206.91;5114492;28;20203;-55
2022/10/20 03:36:08;;;;;;;21.53;12.07;;;;;;;12.66;100.00;149220.84;5114369;28;20196;-55
2022/10/20 03:38:35;;;;;;;14.93;11.77;;;;;;;12.70;100.00;149232.25;5114181;28;20215;-57
2022/10/20 03:41:03;;;;;;;12.83;11.57;;;;;;;12.81;100.00;149260.09;5113980;28;20226;-55
2022/10/20 03:43:30;;;;;;;13.07;11.73;;;;;;;12.79;100.00;149255.06;5114227;28;20622;-56
2022/10/20 03:46:05;;;;;;;15.73;12.37;;;;;;;12.83;100.00;149263.91;5113998;28;20195;-55
2022/10/20 03:48:32;;;;;;;12.43;11.33;;;;;;;12.92;100.00;149286.72;5113954;28;20187;-55
2022/10/20 03:51:00;;;;;;;26.97;12.17;;;;;;;12.93;100.00;149289.25;5112757;28;20194;-56
2022/10/20 03:53:27;;;;;;;23.57;13.43;;;;;;;12.77;100.00;149249.97;5113597;28;20231;-56
2022/10/20 03:55:54;;;;;;;25.67;13.30;;;;;;;12.96;100.00;149296.84;5114014;28;20535;-56
2022/10/20 03:58:23;;;;;;;31.50;13.83;;;;;;;13.00;100.00;149305.69;5113648;28;20190;-56
2022/10/20 04:00:51;;;;;;;39.97;13.90;;;;;;;13.09;100.00;149328.50;5113628;28;20275;-57
2022/10/20 04:03:18;;;;;;;34.67;12.83;;;;;;;13.02;100.00;149310.78;5113542;28;20186;-56
2022/10/20 04:05:45;;;;;;;31.90;13.47;;;;;;;13.13;100.00;149339.94;5113989;28;20300;-56
2022/10/20 04:08:12;;;;;;;24.53;13.07;;;;;;;13.07;100.00;149323.44;5113805;28;20263;-56
2022/10/20 04:10:39;;;;;;;28.33;12.93;;;;;;;13.16;100.00;149347.53;5113408;28;20183;-57
2022/10/20 04:13:06;;;;;;;20.27;13.37;;;;;;;13.30;100.00;149380.47;5113651;28;20187;-54
2022/10/20 04:15:34;;;;;;;21.23;13.73;;;;;;;13.35;100.00;149394.44;5113513;28;20183;-56
2022/10/20 04:18:01;;;;;;;29.27;14.93;;;;;;;13.38;100.00;149400.72;5113282;28;20202;-56
2022/10/20 04:20:28;;;;;;;29.73;13.60;;;;;;;13.45;100.00;149418.50;5113209;28;20193;-55
2022/10/20 04:22:55;;;;;;;20.97;11.10;;;;;;;13.50;100.00;149432.41;5113186;28;20187;-56
2022/10/20 04:25:21;;;;;;;22.73;12.57;;;;;;;13.40;100.00;149405.81;5113605;28;20649;-56
2022/10/20 04:27:48;;;;;;;21.43;12.60;;;;;;;13.40;100.00;149407.09;5113439;28;20193;-55
2022/10/20 04:30:17;;;;;;;22.00;11.77;;;;;;;13.39;100.00;149403.28;5112988;28;20245;-56
2022/10/20 04:32:45;;;;;;;16.03;11.67;;;;;;;13.45;100.00;149418.50;5113349;28;20187;-56
2022/10/20 04:35:12;;;;;;;12.30;10.97;;;;;;;13.45;100.00;149418.50;5113208;28;20214;-57
2022/10/20 04:37:39;;;;;;;13.67;11.40;;;;;;;13.51;100.00;149433.69;5112881;28;20270;-56
2022/10/20 04:40:07;;;;;;;17.93;11.97;;;;;;;13.55;100.00;149445.09;5113161;28;20192;-56
2022/10/20 04:42:34;;;;;;;21.43;11.20;;;;;;;13.55;100.00;149443.81;5113105;28;20646;-56
2022/10/20 04:45:01;;;;;;;16.90;10.93;;;;;;;13.39;100.00;149403.28;5112985;28;20194;-56
2022/10/20 04:47:32;;;;;;;18.50;11.30;;;;;;;13.51;100.00;149433.69;5112993;28;20187;-56
2022/10/20 04:50:00;;;;;;;25.77;12.67;;;;;;;13.65;100.00;149470.44;5112553;28;20183;-56
2022/10/20 04:52:28;;;;;;;26.87;12.47;;;;;;;13.77;100.00;149498.31;5112624;28;20272;-56
2022/10/20 04:54:55;;;;;;;20.20;11.53;;;;;;;13.61;100.00;149459.03;5112538;28;20205;-56
2022/10/20 04:57:22;;;;;;;20.80;11.07;;;;;;;13.80;100.00;149507.16;5112838;28;20187;-57
2022/10/20 04:59:49;;;;;;;19.10;10.73;;;;;;;13.85;100.00;149519.84;5112107;28;20184;-56
2022/10/20 05:02:16;;;;;;;22.93;11.07;;;;;;;13.91;100.00;149535.06;5112414;28;20187;-55
2022/10/20 05:04:43;;;;;;;16.70;8.30;;;;;;;13.99;100.00;149554.06;5112439;28;20205;-56
2022/10/20 05:07:11;;;;;;;6.00;5.60;;;;;;;14.10;100.00;149583.22;5112330;28;20286;-56
2022/10/20 05:09:38;;;;;;;5.27;4.93;;;;;;;14.11;100.00;149585.78;5112571;28;20546;-56
2022/10/20 05:12:05;;;;;;;6.13;4.00;;;;;;;14.31;100.00;149633.91;5112278;28;20191;-56
2022/10/20 05:14:32;;;;;;;4.60;3.20;;;;;;;14.45;100.00;149669.47;5112376;28;20661;-57
2022/10/20 05:16:59;;;;;;;7.33;3.37;;;;;;;14.50;100.00;149682.16;5112436;28;20206;-56
2022/10/20 05:19:26;;;;;;;7.90;3.27;;;;;;;14.50;100.00;149682.16;5112561;28;20562;-57
2022/10/20 05:21:52;;;;;;;5.60;3.83;;;;;;;14.54;100.00;149692.31;5112470;28;20191;-56
2022/10/20 05:24:21;;;;;;;3.90;3.50;;;;;;;14.59;100.00;149705.00;5112204;28;20201;-56
2022/10/20 05:26:47;;;;;;;3.83;3.63;;;;;;;14.53;100.00;149691.03;5112443;28;20641;-56
2022/10/20 05:29:14;;;;;;;4.30;3.40;;;;;;;14.66;100.00;149722.72;5112135;28;20227;-56
2022/10/20 05:31:43;;;;;;;3.87;3.30;;;;;;;14.69;100.00;149730.31;5112466;28;20535;-56
2022/10/20 05:34:11;;;;;;;4.47;3.40;;;;;;;14.58;100.00;149702.44;5111872;28;20208;-56
2022/10/20 05:36:39;;;;;;;4.03;3.67;;;;;;;14.68;100.00;149727.81;5112153;28;20214;-57
2022/10/20 05:39:06;;;;;;;16.67;3.87;;;;;;;14.69;100.00;149730.31;5111755;28;20191;-55
2022/10/20 05:41:34;;;;;;;3.97;2.43;;;;;;;14.84;100.00;149768.41;5111803;28;20223;-56
2022/10/20 05:44:03;;;;;;;2.80;2.70;;;;;;;14.91;100.00;149786.13;5111791;28;20179;-57
2022/10/20 05:46:32;;;;;;;4.40;2.87;;;;;;;15.01;100.00;149810.25;5111799;28;20179;-56
2022/10/20 05:49:01;;;;;;;3.27;3.00;;;;;;;15.11;100.00;149834.38;5111949;28;20199;-55
2022/10/20 05:51:30;;;;;;;3.43;2.73;;;;;;;14.78;100.00;149751.88;5111700;28;20187;-56
2022/10/20 05:53:59;;;;;;;7.33;2.90;;;;;;;14.75;100.00;149744.28;5111572;28;20207;-56
2022/10/20 05:56:27;;;;;;;2.23;2.13;;;;;;;14.78;100.00;149753.16;5111951;28;20629;-56
2022/10/20 05:58:57;;;;;;;2.93;1.97;;;;;;;14.72;100.00;149736.69;5111850;28;20629;-57
2022/10/20 06:01:26;;;;;;;10.33;2.63;;;;;;;14.48;100.00;149677.06;5111451;28;20244;-56
2022/10/20 06:03:54;;;;;;;4.20;1.77;;;;;;;14.85;100.00;149770.91;5111564;28;20219;-58
2022/10/20 06:06:24;;;;;;;3.30;1.77;;;;;;;14.92;100.00;149788.69;5111777;28;20553;-56
2022/10/20 06:08:51;;;;;;;3.83;2.83;;;;;;;14.94;100.00;149793.75;5111901;28;20218;-56
2022/10/20 06:11:19;;;;;;;2.47;1.97;;;;;;;14.86;100.00;149773.44;5111582;28;20187;-57
2022/10/20 06:13:46;;;;;;;2.40;1.80;;;;;;;14.83;100.00;149764.56;5114525;28;20191;-56
2022/10/20 06:16:19;;;;;;;4.33;2.30;;;;;;;14.67;100.00;149725.28;5115537;28;20180;-58
2022/10/20 06:18:46;;;;;;;3.27;1.87;;;;;;;14.72;100.00;149737.97;5115674;28;20187;-56
2022/10/20 06:21:18;;;;;;;7.23;1.97;;;;;;;14.81;100.00;149760.75;5115416;28;20271;-58
2022/10/20 06:23:45;;;;;;;6.00;2.20;;;;;;;14.78;100.00;149753.16;5115700;28;20714;-56
2022/10/20 06:26:16;;;;;;;2.43;1.93;;;;;;;14.94;100.00;149793.75;5115103;28;20270;-57
2022/10/20 06:28:43;;;;;;;5.63;2.13;;;;;;;14.85;100.00;149770.91;5115216;28;20616;-56
2022/10/20 06:31:12;;;;;;;14.73;2.33;;;;;;;14.99;100.00;149806.44;5094414;28;20203;-56
2022/10/20 06:33:41;;;;;;;20.60;2.07;;;;;;;14.67;100.00;149725.28;5095163;28;20676;-56
2022/10/20 06:36:08;;;;;;;4.67;1.97;;;;;;;14.90;100.00;149783.59;5093689;28;20706;-54
2022/10/20 06:38:36;;;;;;;8.93;2.17;;;;;;;14.82;100.00;149763.31;5094548;28;20184;-55
2022/10/20 06:41:03;;;;;;;11.37;2.13;;;;;;;14.87;100.00;149776.00;5095062;28;20267;-56
2022/10/20 06:43:31;;;;;;;4.87;1.80;;;;;;;14.74;100.00;149743.00;5095148;28;20188;-56
2022/10/20 06:45:59;;;;;;;5.60;1.97;;;;;;;14.78;100.00;149753.16;5094601;28;20219;-57
2022/10/20 06:48:26;;;;;;;1.83;1.73;;;;;;;14.69;100.00;149730.31;5099558;28;20192;-56
2022/10/20 06:50:58;;;;;;;12.40;2.20;;;;;;;14.68;100.00;149727.81;5111748;28;20184;-56
2022/10/20 06:53:25;;;;;;;10.50;2.20;;;;;;;14.70;100.00;149732.88;5073234;28;20646;-56
2022/10/20 06:55:57;;;;;;;10.20;2.27;;;;;;;14.73;100.00;149740.47;5074291;28;20215;-56
2022/10/20 06:58:24;;;;;;;3.63;1.70;;;;;;;14.71;100.00;149735.44;5074377;28;20606;-57
2022/10/20 07:00:59;;;;;;;5.10;2.10;;;;;;;14.79;100.00;149754.44;5072483;28;20231;-57
2022/10/20 07:03:26;;;;;;;8.67;1.60;;;;;;;14.80;100.00;149758.25;5091460;28;20179;-58
2022/10/20 07:05:53;;;;;;;3.70;1.40;;;;;;;14.86;100.00;149772.19;5094545;28;20180;-56
2022/10/20 07:08:22;;;;;;;3.07;1.20;;;;;;;14.87;100.00;149776.00;5093970;28;20184;-56
2022/10/20 07:10:58;;;;;;;3.77;1.37;;;;;;;14.64;100.00;149717.63;5094258;28;20215;-56
2022/10/20 07:13:25;;;;;;;5.67;1.60;;;;;;;14.80;100.00;149758.25;5094161;28;20188;-56
2022/10/20 07:15:53;;;;;;;18.40;2.10;;;;;;;14.75;100.00;149744.28;5094147;28;20287;-55
2022/10/20 07:18:21;;;;;;;5.03;1.63;;;;;;;14.60;100.00;149707.50;5092091;28;20180;-56
2022/10/20 07:20:48;;;;;;;7.80;1.43;;;;;;;14.56;100.00;149697.34;5094244;28;20192;-56
2022/10/20 07:23:14;;;;;;;1.43;1.30;;;;;;;14.58;100.00;149702.44;5093563;28;20235;-56
2022/10/20 07:25:43;;;;;;;4.93;1.40;;;;;;;14.38;100.00;149651.75;5094359;28;20214;-56
2022/10/20 07:28:10;;;;;;;8.43;1.70;;;;;;;14.48;100.00;149677.06;5094129;28;20638;-55
2022/10/20 07:30:39;;;;;;;5.50;1.30;;;;;;;14.15;100.00;149595.91;5093621;28;20223;-56
2022/10/20 07:33:06;;;;;;;15.10;2.03;;;;;;;14.32;100.00;149636.47;5093724;28;20185;-56
2022/10/20 07:35:33;;;;;;;1.73;1.17;;;;;;;14.41;100.00;149660.59;5100302;28;20281;-55
2022/10/20 07:38:00;;;;;;;1.30;1.20;;;;;;;14.33;100.00;149639.00;5110009;28;20527;-55
2022/10/20 07:40:27;;;;;;;4.93;1.90;;;;;;;14.46;100.00;149673.31;5113848;28;20194;-56
2022/10/20 07:42:56;;;;;;;1.90;1.27;;;;;;;14.28;100.00;149627.59;5113791;28;20274;-56
2022/10/20 07:45:23;;;;;;;3.33;1.40;;;;;;;14.53;100.00;149689.75;5113890;28;20184;-56
2022/10/20 07:47:50;;;;;;;7.33;1.40;;;;;;;14.63;100.00;149715.13;5113903;28;20189;-57
2022/10/20 07:50:16;;;;;;;3.07;1.20;;;;;;;14.54;100.00;149692.31;5113974;28;20187;-57
2022/10/20 07:52:43;;;;;;;6.47;1.40;;;;;;;14.69;100.00;149730.31;5113692;28;20187;-56
2022/10/20 07:55:10;;;;;;;3.30;1.70;;;;;;;14.94;100.00;149793.75;5114495;28;20534;-56
2022/10/20 07:57:37;;;;;;;1.07;1.07;;;;;;;14.89;100.00;149779.81;5113939;28;20194;-56
2022/10/20 08:00:09;;;;;;;4.57;1.60;;;;;;;15.00;100.00;149808.97;5114353;28;20191;-57
2022/10/20 08:02:36;;;;;;;3.10;1.53;;;;;;;14.89;100.00;149779.81;5113837;28;20695;-57
2022/10/20 08:05:03;;;;;;;2.53;1.50;;;;;;;15.13;100.00;149839.41;5113263;27;20186;-59
2022/10/20 08:07:31;;;;;;;1.40;1.30;;;;;;;14.85;100.00;149770.91;5113779;28;20345;-56
2022/10/20 08:09:58;;;;;;;1.33;1.20;;;;;;;14.67;100.00;149724.00;5113845;28;20183;-56
2022/10/20 08:12:25;;;;;;;1.50;1.40;;;;;;;14.89;100.00;149779.81;5112568;28;20683;-56
2022/10/20 08:14:52;;;;;;;1.50;1.40;;;;;;;14.69;100.00;149730.31;5113237;28;20199;-57
2022/10/20 08:17:20;;;;;;;3.50;1.10;;;;;;;14.60;100.00;149708.78;5113265;28;20278;-56
2022/10/20 08:19:47;;;;;;;10.13;1.83;;;;;;;14.64;100.00;149718.91;5109953;28;20184;-56
2022/10/20 08:22:18;;;;;;;6.03;1.30;;;;;;;14.68;100.00;149726.56;5102809;28;20252;-57
2022/10/20 08:24:45;;;;;;;1.40;1.30;;;;;;;14.68;99.86;149726.56;5103562;28;20217;-56
2022/10/20 08:27:12;;;;;;;1.57;1.00;;;;;;;14.88;99.98;149777.28;5110605;28;20191;-56
2022/10/20 08:29:39;;;;;;;3.60;1.87;;;;;;;14.80;98.93;149756.97;5109713;28;20449;-55
2022/10/20 08:32:06;;;;;;;3.03;1.50;;;;;;;15.12;98.59;149836.88;5102489;28;20194;-55
2022/10/20 08:34:35;;;;;;;5.03;1.57;;;;;;;15.25;94.61;149869.84;5110702;28;20192;-55
2022/10/20 08:37:02;;;;;;;8.33;2.13;;;;;;;15.44;93.93;149918.09;5113170;28;20184;-57
2022/10/20 08:39:31;;;;;;;4.10;1.80;;;;;;;15.23;93.42;149866.06;5112874;28;20187;-55
2022/10/20 08:42:00;;;;;;;2.00;1.50;;;;;;;15.66;90.93;149972.72;5112754;28;20183;-56
2022/10/20 08:44:30;;;;;;;7.03;1.70;;;;;;;15.76;88.67;149999.34;5112727;28;20270;-56
2022/10/20 08:47:00;;;;;;;4.13;1.50;;;;;;;15.76;89.43;149998.06;5112599;28;20180;-57
2022/10/20 08:49:30;;;;;;;1.27;1.17;;;;;;;15.61;85.76;149961.28;5112201;28;20183;-56
2022/10/20 08:51:59;;;;;;;3.73;1.47;;;;;;;15.84;88.20;150019.63;5112513;28;20187;-57
2022/10/20 08:54:26;;;;;;;2.47;1.23;;;;;;;15.62;86.29;149962.50;5112881;28;20535;-56
2022/10/20 08:56:53;;;;;;;1.03;1.03;;;;;;;15.60;85.43;149957.47;5109440;28;20256;-57
2022/10/20 08:59:28;;;;;;;4.10;1.17;;;;;;;15.21;86.96;149859.72;5112624;28;20191;-55
2022/10/20 09:01:57;;;;;;;9.10;1.73;;;;;;;15.41;86.32;149911.72;5112755;28;20558;-56
2022/10/20 09:04:27;;;;;;;1.37;1.27;;;;;;;15.50;85.17;149933.34;5112469;28;20275;-57
2022/10/20 09:07:00;;;;;;;26.97;3.00;;;;;;;15.86;92.22;150023.47;5107504;28;20198;-55
2022/10/20 09:09:30;;;;;;;8.93;2.93;;;;;;;16.14;87.13;150094.53;5097391;28;20199;-56
2022/10/20 09:12:06;;;;;;;4.43;1.20;;;;;;;16.37;81.04;150152.97;5102103;28;20187;-57
2022/10/20 09:14:36;;;;;;;7.17;2.43;;;;;;;16.50;79.52;150184.72;5102794;28;20187;-57
2022/10/20 09:17:04;;;;;;;5.87;1.63;;;;;;;16.56;77.99;150199.91;5101591;28;20184;-56
2022/10/20 09:19:32;;;;;;;3.00;1.27;;;;;;;16.81;76.40;150263.47;5109202;28;20191;-55
2022/10/20 09:22:05;;;;;;;1.63;1.03;;;;;;;16.69;76.55;150233.00;5110233;28;20190;-56
2022/10/20 09:24:35;;;;;;;0.80;0.80;;;;;;;16.72;74.38;150240.59;5109301;28;20587;-56
2022/10/20 09:27:19;;;;;;;2.80;1.10;;;;;;;16.58;74.11;150205.06;5112012;28;20222;-57
2022/10/20 09:29:46;;;;;;;1.27;1.17;;;;;;;16.70;75.31;150235.53;5111981;28;20234;-56
2022/10/20 09:32:19;;;;;;;3.10;1.10;;;;;;;16.58;71.80;150203.78;5111999;28;20184;-56
2022/10/20 09:34:46;;;;;;;1.20;1.10;;;;;;;16.70;72.52;150235.53;5112328;28;20252;-56
2022/10/20 09:37:18;;;;;;;4.20;1.00;;;;;;;16.89;70.38;150283.78;5112063;28;20183;-56
2022/10/20 09:39:53;;;;;;;5.47;1.30;;;;;;;17.05;67.64;150323.19;5112099;28;20195;-57
2022/10/20 09:42:23;;;;;;;1.80;0.90;;;;;;;16.96;67.44;150300.31;5112018;28;20285;-57
2022/10/20 09:44:54;;;;;;;8.67;1.10;;;;;;;17.49;66.81;150432.44;5112351;28;20275;-56
2022/10/20 09:47:24;;;;;;;2.73;0.90;;;;;;;17.38;63.66;150405.75;5115285;28;20191;-56
2022/10/20 09:49:57;;;;;;;1.47;1.20;;;;;;;18.13;62.30;150593.91;5114872;28;20197;-57
2022/10/20 09:52:32;;;;;;;1.97;1.17;;;;;;;19.17;59.17;150855.97;5115710;28;20636;-56
2022/10/20 09:55:02;;;;;;;1.30;1.10;;;;;;;18.78;59.11;150758.03;5116309;28;20206;-57
2022/10/20 09:57:30;;;;;;;1.03;1.03;;;;;;;19.27;57.21;150880.13;5116061;28;20183;-56
2022/10/20 09:59:58;;;;;;;2.17;1.43;;;;;;;19.28;59.03;150883.97;5115889;28;20187;-57
2022/10/20 10:02:31;;;;;;;3.70;1.20;;;;;;;19.25;57.35;150876.34;5115772;28;20183;-57
2022/10/20 10:05:19;;;;;;;1.00;0.87;;;;;;;19.07;58.38;150831.78;5115736;28;20638;-56
2022/10/20 10:07:58;;;;;;;17.20;1.00;;;;;;;19.43;55.18;150920.94;5105564;28;20184;-56
2022/10/20 10:10:28;;;;;;;2.20;1.23;;;;;;;18.74;55.66;150747.84;5095686;28;20623;-56
2022/10/20 10:12:59;;;;;;;3.27;1.00;;;;;;;19.40;56.75;150914.50;5095530;28;20188;-55
2022/10/20 10:15:29;;;;;;;11.07;1.50;;;;;;;19.62;57.23;150969.25;5095417;28;20207;-57
2022/10/20 10:17:57;;;;;;;2.40;1.80;;;;;;;19.54;55.37;150948.91;5095349;28;20192;-57
2022/10/20 10:20:45;;;;;;;3.20;1.20;;;;;;;19.31;56.04;150891.56;5095328;28;20198;-58
2022/10/20 10:23:25;;;;;;;1.40;1.30;;;;;;;19.21;54.47;150866.16;5095225;28;20192;-57
2022/10/20 10:25:53;;;;;;;7.10;1.63;;;;;;;19.59;57.42;150962.94;5094927;28;20188;-57
2022/10/20 10:28:40;;;;;;;1.40;1.30;;;;;;;19.89;53.90;151036.75;5094691;28;20224;-56
2022/10/20 10:31:21;;;;;;;2.57;1.17;;;;;;;19.32;53.67;150894.13;5095013;28;20650;-54
2022/10/20 10:33:51;;;;;;;2.80;1.50;;;;;;;19.32;54.32;150894.13;5095274;28;20188;-56
2022/10/20 10:36:34;;;;;;;2.13;1.17;;;;;;;20.22;53.26;151119.50;5094522;28;20216;-56
2022/10/20 10:39:04;;;;;;;2.70;1.20;;;;;;;20.51;51.14;151194.66;5094679;28;20196;-56
2022/10/20 10:41:57;;;;;;;2.38;1.20;;;;;;;21.34;48.91;151403.63;5094486;28;20192;-56
2022/10/20 10:44:36;;;;;;;1.88;1.27;;;;;;;22.56;45.67;151710.94;5095357;28;20643;-57
2022/10/20 10:47:16;;;;;;;5.35;1.17;;;;;;;23.35;44.37;151909.97;5094296;28;20184;-56
2022/10/20 10:49:56;;;;;;;2.75;1.20;;;;;;;23.69;41.91;151995.50;5094552;28;20684;-56
2022/10/20 10:52:36;;;;;;;3.55;1.10;;;;;;;23.69;42.30;151995.50;5094341;28;20562;-56
2022/10/20 10:55:17;;;;;;;5.40;1.40;;;;;;;23.14;42.90;151856.38;5094290;28;20192;-57
2022/10/20 10:57:55;;;;;;;4.43;1.27;;;;;;;24.49;41.42;152197.25;5093783;28;20216;-56
2022/10/20 11:00:32;;;;;;;4.10;1.45;;;;;;;25.24;40.04;152386.38;5094352;28;20202;-55
2022/10/20 11:03:12;;;;;;;1.92;1.10;;;;;;;23.30;42.23;151895.97;5094414;28;20184;-56
2022/10/20 11:06:03;;;;;;;7.88;1.20;;;;;;;23.52;43.22;151953.41;5094483;28;20574;-56
2022/10/20 11:08:43;;;;;;;2.22;1.20;;;;;;;21.28;45.47;151387.06;5094513;28;20283;-56
2022/10/20 11:11:24;;;;;;;2.85;1.30;;;;;;;20.44;48.03;151176.84;5094458;28;20268;-57
2022/10/20 11:14:11;;;;;;;5.55;1.70;;;;;;;20.13;49.33;151096.56;5093981;28;20188;-56
2022/10/20 11:16:45;;;;;;;2.93;1.37;;;;;;;19.40;51.58;150913.22;5094099;28;20552;-55
2022/10/20 11:19:31;;;;;;;1.73;1.20;;;;;;;18.31;54.15;150639.69;5093946;28;20566;-57
2022/10/20 11:22:08;;;;;;;6.03;1.43;;;;;;;18.30;55.51;150635.88;5093882;28;20266;-56
2022/10/20 11:25:04;;;;;;;3.30;1.30;;;;;;;18.21;56.81;150614.25;5093998;28;20200;-56